Alton, New York
Current Conditions -  °F | °C
As of 3:54 AM on Wednesday 22 Oct 2014 (Local Time) from KFZY Reporting Station
Overcast Overcast  
Wind Chill:   Ceiling: 700
Heat Index:   Visibility: 7mi
Dew Point:   Wind: 9mph
Humidity: 89%   Direction: 10°N
Pressure: 30.06"   Gusts: NA
Location:  43.21°N, 76.98°W
Report Text: KFZY 220754Z AUTO 01008KT 7SM BKN007 OVC070 08/06 A3006 RMK AO2 SLP181 T00780061
Loading
Personal Weather Stations






























Interactive Weather Map
Tropical Storm Tracking
New forecast layout! Learn more

10-Day Weather Forecast

Advertisements
Track Severe Weather on mobile